Time;durP1;ratioP1;P1;durP2;ratioP2;P2;SDS_P1;SDS_P2;PMS_P1;PMS_P2;Temp;Humidity;BMP_temperature;BMP_pressure;BME280_temperature;BME280_humidity;BME280_pressure;Samples;Min_cycle;Max_cycle;Signal;HPM_P1;HPM_P2
2021/11/04 00:01:33;;;;;;;126.53;28.42;;;;;;;12.11;95.72;100023.38;5115486;27;20386;-72
2021/11/04 00:03:59;;;;;;;135.98;27.48;;;;;;;12.27;96.35;100046.44;5114146;27;20035;-72
2021/11/04 00:06:24;;;;;;;140.45;29.23;;;;;;;12.26;97.11;100039.47;5114060;27;20054;-72
2021/11/04 00:08:50;;;;;;;97.45;29.25;;;;;;;12.29;97.28;100036.47;5114271;27;20027;-72
2021/11/04 00:11:15;;;;;;;106.43;29.40;;;;;;;12.30;96.93;100030.19;5113982;27;20039;-72
2021/11/04 00:13:41;;;;;;;92.68;27.00;;;;;;;12.26;97.06;100036.81;5120390;27;20138;-72
2021/11/04 00:16:09;;;;;;;87.00;27.42;;;;;;;12.36;96.72;100048.09;5109519;28;20020;-73
2021/11/04 00:18:35;;;;;;;169.70;29.15;;;;;;;12.34;96.37;100050.91;5119273;27;20301;-72
2021/11/04 00:21:01;;;;;;;82.50;27.15;;;;;;;12.23;96.93;100031.84;5114520;27;20036;-72
2021/11/04 00:23:26;;;;;;;127.82;28.25;;;;;;;12.36;95.93;100048.09;5106040;28;20120;-72
2021/11/04 00:25:52;;;;;;;107.13;27.88;;;;;;;12.17;96.20;100045.78;5107153;28;20054;-72
2021/11/04 00:28:18;;;;;;;105.43;28.88;;;;;;;12.22;96.80;100048.75;5107957;28;20099;-72
2021/11/04 00:30:44;;;;;;;118.40;28.33;;;;;;;12.28;96.45;100043.63;5119899;27;20036;-72
2021/11/04 00:33:10;;;;;;;108.88;30.30;;;;;;;12.30;95.83;100052.25;5119632;27;20054;-72
2021/11/04 00:35:35;;;;;;;89.07;27.98;;;;;;;12.39;95.11;100056.56;5115339;27;20088;-72
2021/11/04 00:38:02;;;;;;;118.18;29.73;;;;;;;12.22;95.62;100068.16;5144938;27;20019;-72
2021/11/04 00:40:28;;;;;;;99.55;29.77;;;;;;;12.29;96.43;100066.53;5122145;27;20030;-73
2021/11/04 00:42:53;;;;;;;92.55;29.55;;;;;;;12.39;95.65;100069.84;5121127;27;20366;-73
2021/11/04 00:45:21;;;;;;;105.13;30.02;;;;;;;12.21;96.04;100069.16;5121775;27;20233;-72
2021/11/04 00:47:47;;;;;;;138.43;31.90;;;;;;;12.15;96.50;100069.81;5114839;27;20323;-72
2021/11/04 00:50:13;;;;;;;91.28;27.50;;;;;;;11.97;97.25;100075.28;5120677;27;20226;-72
2021/11/04 00:52:39;;;;;;;94.38;28.30;;;;;;;12.09;97.50;100081.94;5114518;27;21209;-73
2021/11/04 00:55:07;;;;;;;96.05;27.35;;;;;;;12.27;96.32;100075.66;5120049;27;20024;-73
2021/11/04 00:57:32;;;;;;;90.63;25.25;;;;;;;12.00;97.23;100074.94;5118958;27;20042;-71
2021/11/04 00:59:58;;;;;;;108.00;23.55;;;;;;;11.95;97.97;100079.91;5115357;27;20032;-71
2021/11/04 01:02:23;;;;;;;80.82;26.33;;;;;;;11.91;97.51;100069.78;5116421;27;20088;-72
2021/11/04 01:04:49;;;;;;;108.05;22.48;;;;;;;11.94;96.74;100069.47;5119909;27;20318;-71
2021/11/04 01:07:15;;;;;;;84.28;24.02;;;;;;;12.07;97.75;100075.94;5116371;27;20045;-72
2021/11/04 01:09:40;;;;;;;67.78;23.30;;;;;;;12.08;97.54;100063.50;5116016;27;20034;-72
2021/11/04 01:12:06;;;;;;;108.93;23.92;;;;;;;12.13;96.88;100069.16;5121547;27;20023;-72
2021/11/04 01:14:31;;;;;;;92.82;25.63;;;;;;;11.77;98.01;100076.53;5116527;27;20031;-72
2021/11/04 01:16:57;;;;;;;85.25;24.70;;;;;;;11.84;99.23;100082.88;5118607;27;20051;-72
2021/11/04 01:19:22;;;;;;;107.90;24.00;;;;;;;12.06;97.36;100094.69;5118994;27;20035;-72
2021/11/04 01:21:48;;;;;;;120.35;26.45;;;;;;;12.00;98.24;100101.47;5112967;28;20032;-72
2021/11/04 01:24:13;;;;;;;96.72;25.65;;;;;;;11.85;99.23;100111.06;5113689;27;20038;-72
2021/11/04 01:26:39;;;;;;;121.57;24.80;;;;;;;12.00;99.90;100104.13;5121013;27;20027;-72
2021/11/04 01:29:04;;;;;;;70.45;22.85;;;;;;;12.08;97.86;100117.44;5121251;27;20213;-72
2021/11/04 01:31:30;;;;;;;103.72;24.13;;;;;;;11.95;98.89;100106.44;5119614;27;20263;-71
2021/11/04 01:33:55;;;;;;;124.63;26.48;;;;;;;11.55;100.00;100114.25;5108888;27;20117;-72
2021/11/04 01:36:21;;;;;;;66.55;25.23;;;;;;;11.44;100.00;100118.84;5118059;27;20042;-72
2021/11/04 01:38:46;;;;;;;59.42;24.60;;;;;;;11.81;100.00;100115.03;5109367;27;20038;-72
2021/11/04 01:41:12;;;;;;;98.95;25.85;;;;;;;11.74;100.00;100113.97;5116201;27;20045;-72
2021/11/04 01:43:37;;;;;;;111.38;25.27;;;;;;;11.55;100.00;100106.28;5120852;27;20237;-72
2021/11/04 01:46:03;;;;;;;167.25;26.85;;;;;;;11.98;100.00;100108.78;5106994;28;20044;-72
2021/11/04 01:48:29;;;;;;;68.25;22.02;;;;;;;12.04;100.00;100113.44;5111874;27;20039;-72
2021/11/04 01:50:55;;;;;;;102.35;22.63;;;;;;;11.95;100.00;100114.41;5115002;28;20378;-72
2021/11/04 01:53:21;;;;;;;127.80;22.08;;;;;;;11.96;100.00;100116.06;5108614;27;20042;-72
2021/11/04 01:55:49;;;;;;;71.95;20.35;;;;;;;12.18;100.00;100116.44;5119823;27;20058;-72
2021/11/04 01:58:16;;;;;;;180.52;23.80;;;;;;;12.12;100.00;100123.25;5110291;27;20019;-72
2021/11/04 02:00:41;;;;;;;111.70;21.75;;;;;;;12.06;100.00;100123.91;5108158;28;20072;-72
2021/11/04 02:03:29;;;;;;;145.50;23.35;;;;;;;12.28;99.39;100120.63;5121205;28;20312;-72
2021/11/04 02:06:15;;;;;;;102.68;21.45;;;;;;;12.20;100.00;100123.25;5110314;28;20233;-73
2021/11/04 02:08:56;;;;;;;108.60;21.98;;;;;;;12.16;100.00;100121.94;5114404;28;20333;-72
2021/11/04 02:11:26;;;;;;;121.30;21.92;;;;;;;12.14;100.00;100122.09;5112572;28;20041;-72
2021/11/04 02:13:59;;;;;;;97.88;22.25;;;;;;;12.18;100.00;100121.75;5112829;27;20032;-72
2021/11/04 02:16:27;;;;;;;75.38;21.88;;;;;;;12.30;99.97;100123.94;5112060;28;20233;-72
2021/11/04 02:18:59;;;;;;;112.50;21.55;;;;;;;12.29;99.27;100132.91;5102921;28;20048;-72
2021/11/04 02:21:51;;;;;;;93.57;22.73;;;;;;;12.31;99.14;100127.44;5123658;27;20026;-72
2021/11/04 02:24:43;;;;;;;129.57;22.38;;;;;;;12.26;100.00;100132.41;5121474;27;20159;-72
2021/11/04 02:27:12;;;;;;;116.40;23.90;;;;;;;12.26;100.00;100135.88;5119044;27;20193;-72
2021/11/04 02:29:43;;;;;;;92.95;22.63;;;;;;;12.25;99.77;100136.03;5117882;27;20031;-72
2021/11/04 02:32:10;;;;;;;99.28;22.65;;;;;;;12.29;100.00;100137.38;5113247;27;20055;-72
2021/11/04 02:34:40;;;;;;;120.90;21.65;;;;;;;12.09;100.00;100135.00;5117111;27;20098;-72
2021/11/04 02:37:07;;;;;;;82.80;22.17;;;;;;;12.30;100.00;100136.38;5123638;27;20351;-72
2021/11/04 02:39:33;;;;;;;97.00;22.48;;;;;;;12.26;100.00;100135.03;5118161;27;20360;-72
2021/11/04 02:41:59;;;;;;;82.82;22.55;;;;;;;12.42;98.95;100143.03;5113976;27;20036;-73
2021/11/04 02:44:26;;;;;;;75.63;21.70;;;;;;;12.38;99.35;100147.03;5117697;27;20024;-73
2021/11/04 02:46:56;;;;;;;137.00;23.85;;;;;;;12.28;100.00;100141.03;5120034;27;20131;-72
2021/11/04 02:49:26;;;;;;;136.23;25.17;;;;;;;12.28;100.00;100136.53;5114895;27;20038;-72
2021/11/04 02:51:52;;;;;;;105.90;23.48;;;;;;;12.39;99.51;100132.75;5124681;28;20070;-72
2021/11/04 02:54:18;;;;;;;131.98;27.95;;;;;;;12.42;99.02;100140.38;5125279;28;20039;-72
2021/11/04 02:56:48;;;;;;;76.30;27.40;;;;;;;12.23;100.00;100146.81;5125498;28;20374;-72
2021/11/04 02:59:15;;;;;;;141.15;26.98;;;;;;;12.28;99.82;100138.38;5125428;28;20036;-72
2021/11/04 03:01:43;;;;;;;100.53;28.08;;;;;;;12.30;100.00;100152.31;5125547;28;20031;-72
2021/11/04 03:04:09;;;;;;;104.00;28.58;;;;;;;12.44;99.66;100159.63;5125106;28;20080;-72
2021/11/04 03:06:34;;;;;;;132.68;32.00;;;;;;;12.36;100.00;100159.63;5125194;28;20028;-72
2021/11/04 03:09:00;;;;;;;108.97;32.85;;;;;;;12.31;100.00;100162.78;5125101;28;20360;-72
2021/11/04 03:11:25;;;;;;;129.10;33.95;;;;;;;12.26;100.00;100162.44;5123844;28;20091;-73
2021/11/04 03:13:51;;;;;;;129.73;36.15;;;;;;;12.21;100.00;100167.41;5124936;28;20087;-72
2021/11/04 03:16:19;;;;;;;139.30;37.65;;;;;;;12.25;100.00;100163.44;5125602;28;20095;-72
2021/11/04 03:18:45;;;;;;;117.53;36.63;;;;;;;12.25;100.00;100167.91;5124792;28;20405;-72
2021/11/04 03:21:12;;;;;;;108.65;38.53;;;;;;;12.32;99.85;100168.91;5125548;28;20228;-72
2021/11/04 03:23:38;;;;;;;107.82;37.78;;;;;;;12.30;99.64;100166.41;5125083;27;20031;-72
2021/11/04 03:26:04;;;;;;;90.75;36.45;;;;;;;12.59;97.88;100173.97;5125183;28;20046;-72
2021/11/04 03:28:32;;;;;;;95.35;36.53;;;;;;;12.36;98.51;100164.94;5114630;28;20039;-72
2021/11/04 03:30:59;;;;;;;98.88;38.50;;;;;;;12.42;99.32;100178.41;5121953;28;20031;-73
2021/11/04 03:33:27;;;;;;;92.47;35.08;;;;;;;12.39;99.06;100184.03;5120291;28;20034;-72
2021/11/04 03:35:55;;;;;;;95.75;38.40;;;;;;;12.53;97.98;100187.06;5124581;27;20430;-72
2021/11/04 03:38:21;;;;;;;94.00;37.72;;;;;;;12.59;97.84;100189.91;5119680;28;20036;-72
2021/11/04 03:40:47;;;;;;;91.43;38.22;;;;;;;12.66;97.20;100203.38;5119055;27;20043;-72
2021/11/04 03:43:14;;;;;;;86.40;36.40;;;;;;;12.63;97.67;100201.03;5115181;27;20027;-73
2021/11/04 03:45:40;;;;;;;82.15;36.17;;;;;;;12.60;97.39;100199.53;5111364;27;20020;-72
2021/11/04 03:48:06;;;;;;;87.97;37.13;;;;;;;12.60;97.51;100193.41;5110298;28;20024;-72
2021/11/04 03:50:34;;;;;;;86.18;34.63;;;;;;;12.62;97.58;100189.56;5115559;27;20046;-72
2021/11/04 03:53:00;;;;;;;93.25;36.28;;;;;;;12.63;96.91;100191.25;5117743;27;20036;-72
2021/11/04 03:55:28;;;;;;;94.50;35.45;;;;;;;12.50;97.33;100190.06;5109944;27;20070;-72
2021/11/04 03:57:54;;;;;;;88.63;37.03;;;;;;;12.49;98.40;100189.22;5112765;27;20039;-72
2021/11/04 04:00:20;;;;;;;84.13;35.45;;;;;;;12.46;99.29;100198.31;5110381;27;20029;-72
2021/11/04 04:02:48;;;;;;;91.47;36.67;;;;;;;12.73;97.04;100196.41;5114287;27;20321;-72
2021/11/04 04:05:14;;;;;;;85.57;34.92;;;;;;;12.70;97.49;100199.38;5115794;27;20023;-72
2021/11/04 04:07:40;;;;;;;82.40;35.38;;;;;;;12.68;97.73;100194.22;5115334;27;20024;-72
2021/11/04 04:10:06;;;;;;;77.63;33.28;;;;;;;12.76;96.69;100193.41;5117807;27;20043;-73
2021/11/04 04:12:32;;;;;;;80.95;33.63;;;;;;;12.74;96.28;100201.53;5110624;27;20329;-73
2021/11/04 04:14:57;;;;;;;77.07;31.70;;;;;;;12.69;96.62;100201.22;5111083;28;20091;-72
2021/11/04 04:17:23;;;;;;;88.80;32.17;;;;;;;12.58;98.11;100193.56;5117930;27;20043;-72
2021/11/04 04:19:50;;;;;;;78.00;32.47;;;;;;;12.70;97.92;100207.34;5107559;28;20210;-72
2021/11/04 04:22:16;;;;;;;83.28;33.83;;;;;;;12.81;97.01;100206.19;5118699;27;20057;-72
2021/11/04 04:24:42;;;;;;;81.43;32.78;;;;;;;12.79;97.29;100206.38;5110785;28;20351;-72
2021/11/04 04:27:07;;;;;;;75.82;33.20;;;;;;;12.85;96.62;100210.19;5115186;27;20032;-72
2021/11/04 04:29:32;;;;;;;81.47;33.15;;;;;;;12.87;96.61;100205.53;5111654;27;21056;-72
2021/11/04 04:31:59;;;;;;;81.38;33.22;;;;;;;12.84;96.45;100206.69;5108177;27;20043;-72
2021/11/04 04:34:25;;;;;;;88.00;35.85;;;;;;;12.86;96.39;100210.03;5112021;27;20359;-72
2021/11/04 04:36:51;;;;;;;109.72;42.10;;;;;;;12.84;97.02;100209.38;5118808;27;20039;-72
2021/11/04 04:39:17;;;;;;;95.95;39.75;;;;;;;12.90;96.21;100187.44;5119074;27;20028;-73
2021/11/04 04:41:43;;;;;;;96.07;38.00;;;;;;;12.77;97.23;100200.38;5115309;27;20092;-73
2021/11/04 04:44:08;;;;;;;89.78;34.75;;;;;;;12.83;97.47;100202.38;5121612;27;20252;-72
2021/11/04 04:46:34;;;;;;;87.70;34.88;;;;;;;12.94;96.49;100209.19;5115290;27;20088;-72
2021/11/04 04:48:59;;;;;;;88.50;34.28;;;;;;;12.94;96.32;100206.53;5114252;27;20023;-72
2021/11/04 04:51:25;;;;;;;89.85;35.10;;;;;;;13.12;94.10;100209.84;5123033;27;20122;-72
2021/11/04 04:53:50;;;;;;;102.95;39.85;;;;;;;12.77;95.73;100206.53;5122490;27;20088;-71
2021/11/04 04:56:16;;;;;;;92.55;35.90;;;;;;;12.59;97.35;100205.00;5120200;27;20083;-72
2021/11/04 04:58:41;;;;;;;103.25;38.35;;;;;;;12.46;99.25;100211.59;5113750;27;20032;-72
2021/11/04 05:01:07;;;;;;;124.10;44.70;;;;;;;12.61;99.02;100227.75;5114204;27;20047;-72
2021/11/04 05:03:32;;;;;;;128.63;48.65;;;;;;;12.56;99.01;100230.09;5114763;28;20418;-72
2021/11/04 05:05:58;;;;;;;127.60;51.20;;;;;;;12.58;99.13;100224.59;5107657;28;20047;-72
2021/11/04 05:08:23;;;;;;;145.40;57.08;;;;;;;12.53;99.69;100219.78;5113220;27;20068;-72
2021/11/04 05:10:49;;;;;;;139.20;51.85;;;;;;;12.56;100.00;100211.50;5112594;27;20024;-72
2021/11/04 05:13:14;;;;;;;152.13;53.15;;;;;;;12.65;99.76;100218.47;5114187;27;20097;-72
2021/11/04 05:15:40;;;;;;;148.43;49.67;;;;;;;12.87;97.52;100218.81;5116961;27;20051;-72
2021/11/04 05:18:08;;;;;;;124.97;44.05;;;;;;;12.83;97.32;100217.50;5106050;28;20230;-71
2021/11/04 05:20:36;;;;;;;135.85;47.35;;;;;;;12.66;97.43;100224.63;5115271;27;20208;-72
2021/11/04 05:23:01;;;;;;;122.53;45.03;;;;;;;12.52;99.67;100227.91;5119123;27;20062;-72
2021/11/04 05:25:27;;;;;;;143.40;43.05;;;;;;;12.63;100.00;100236.41;5114596;27;20027;-72
2021/11/04 05:27:52;;;;;;;125.85;41.60;;;;;;;12.70;98.66;100234.75;5116394;27;20025;-72
2021/11/04 05:30:19;;;;;;;122.30;41.08;;;;;;;12.52;99.16;100228.75;5115240;27;20035;-72
2021/11/04 05:32:45;;;;;;;136.55;40.40;;;;;;;12.53;99.67;100237.53;5116387;27;20058;-72
2021/11/04 05:35:12;;;;;;;152.63;44.17;;;;;;;12.46;100.00;100245.31;5117448;27;20034;-72
2021/11/04 05:37:37;;;;;;;131.65;41.30;;;;;;;12.45;99.98;100244.47;5116555;27;20089;-72
2021/11/04 05:40:04;;;;;;;135.07;42.42;;;;;;;12.32;100.00;100240.59;5115108;28;20031;-72
2021/11/04 05:42:29;;;;;;;142.82;43.38;;;;;;;12.22;100.00;100231.94;5119134;27;20317;-71
2021/11/04 05:44:55;;;;;;;135.02;42.53;;;;;;;12.10;100.00;100240.19;5114764;27;20044;-71
2021/11/04 05:47:20;;;;;;;159.05;42.50;;;;;;;11.97;100.00;100239.81;5119612;27;20043;-71
2021/11/04 05:49:45;;;;;;;129.68;39.38;;;;;;;11.93;100.00;100240.28;5117383;27;20352;-72
2021/11/04 05:52:11;;;;;;;129.52;36.72;;;;;;;11.86;100.00;100240.09;5116726;28;20051;-72
2021/11/04 05:54:37;;;;;;;121.90;28.35;;;;;;;11.70;100.00;100253.25;5117479;28;20079;-71
2021/11/04 05:57:03;;;;;;;106.18;26.60;;;;;;;11.58;100.00;100251.84;5117208;27;20040;-71
2021/11/04 05:59:28;;;;;;;98.47;28.25;;;;;;;11.47;100.00;100252.94;5114854;28;20031;-72
2021/11/04 06:01:54;;;;;;;107.80;29.25;;;;;;;11.51;100.00;100252.47;5116966;28;20043;-72
2021/11/04 06:04:20;;;;;;;133.63;31.88;;;;;;;11.43;100.00;100257.69;5115755;28;20397;-72
2021/11/04 06:06:47;;;;;;;125.70;30.23;;;;;;;11.50;100.00;100247.31;5114845;28;20027;-72
2021/11/04 06:09:12;;;;;;;118.93;34.35;;;;;;;11.43;100.00;100231.16;5118025;28;20032;-71
2021/11/04 06:11:38;;;;;;;116.93;33.65;;;;;;;11.54;100.00;100243.34;5114676;28;20035;-72
2021/11/04 06:14:04;;;;;;;116.25;31.45;;;;;;;11.71;100.00;100249.59;5116342;28;20322;-72
2021/11/04 06:16:30;;;;;;;109.97;32.20;;;;;;;11.55;100.00;100250.31;5111985;28;20077;-72
2021/11/04 06:18:55;;;;;;;111.30;30.40;;;;;;;11.58;100.00;100254.50;5117723;28;20047;-72
2021/11/04 06:21:21;;;;;;;126.30;31.35;;;;;;;11.71;100.00;100262.84;5116560;28;20411;-72
2021/11/04 06:23:46;;;;;;;123.35;34.50;;;;;;;11.72;100.00;100251.25;5114041;28;20345;-72
2021/11/04 06:26:13;;;;;;;107.50;30.95;;;;;;;11.81;100.00;100258.31;5115781;28;20044;-72
2021/11/04 06:28:39;;;;;;;123.13;34.55;;;;;;;11.87;100.00;100260.31;5113226;28;20322;-72
2021/11/04 06:31:04;;;;;;;116.22;34.20;;;;;;;11.95;100.00;100263.03;5117948;28;20077;-72
2021/11/04 06:33:30;;;;;;;109.60;35.85;;;;;;;12.02;100.00;100272.00;5113686;28;20248;-72
2021/11/04 06:35:55;;;;;;;108.03;36.50;;;;;;;12.02;100.00;100264.06;5114531;28;20050;-72
2021/11/04 06:38:21;;;;;;;122.97;39.28;;;;;;;12.13;100.00;100266.44;5114569;28;20220;-72
2021/11/04 06:40:47;;;;;;;109.38;41.75;;;;;;;12.39;100.00;100274.34;5116818;28;20298;-72
2021/11/04 06:43:12;;;;;;;106.72;40.53;;;;;;;12.32;100.00;100275.97;5115435;28;20024;-72
2021/11/04 06:45:40;;;;;;;108.57;37.72;;;;;;;12.34;100.00;100273.97;5118265;28;20031;-72
2021/11/04 06:48:07;;;;;;;111.68;36.53;;;;;;;12.34;100.00;100278.47;5114011;28;20043;-71
2021/11/04 06:50:37;;;;;;;109.45;34.55;;;;;;;12.31;100.00;100273.47;5116555;28;20055;-72
2021/11/04 06:53:10;;;;;;;109.90;35.53;;;;;;;12.28;100.00;100279.94;5117319;28;21023;-72
2021/11/04 06:55:40;;;;;;;105.53;33.33;;;;;;;12.31;100.00;100281.44;5117742;28;20104;-72
2021/11/04 06:58:14;;;;;;;110.13;34.63;;;;;;;12.32;100.00;100288.41;5119524;28;20031;-72
2021/11/04 07:00:44;;;;;;;109.60;30.67;;;;;;;12.37;100.00;100289.59;5120418;28;20109;-72
2021/11/04 07:03:13;;;;;;;91.22;30.95;;;;;;;12.39;100.00;100297.41;5121405;27;20035;-72
2021/11/04 07:05:41;;;;;;;102.97;30.95;;;;;;;12.42;100.00;100300.56;5121242;28;20020;-72
2021/11/04 07:08:06;;;;;;;109.03;35.72;;;;;;;12.70;100.00;100301.19;5125484;27;20024;-72
2021/11/04 07:10:34;;;;;;;152.30;52.22;;;;;;;12.79;99.66;100304.69;5126427;27;20061;-72
2021/11/04 07:12:59;;;;;;;148.70;47.67;;;;;;;12.89;98.14;100302.72;5125482;27;20038;-72
2021/11/04 07:15:25;;;;;;;152.75;46.47;;;;;;;12.83;98.91;100305.19;5124434;28;20027;-73
2021/11/04 07:17:51;;;;;;;150.18;46.63;;;;;;;12.87;98.26;100307.38;5124055;28;20047;-72
2021/11/04 07:20:18;;;;;;;116.32;39.17;;;;;;;12.93;98.71;100300.56;5123067;28;20310;-72
2021/11/04 07:22:50;;;;;;;101.63;34.55;;;;;;;12.82;99.36;100306.19;5122983;28;20329;-72
2021/11/04 07:25:18;;;;;;;100.35;34.67;;;;;;;12.78;100.00;100309.19;5123992;28;20218;-72
2021/11/04 07:28:13;;;;;;;94.70;32.63;;;;;;;12.92;100.00;100305.06;5125142;27;20032;-72
2021/11/04 07:30:39;;;;;;;94.20;31.25;;;;;;;13.04;99.10;100308.22;5126170;27;20034;-73
2021/11/04 07:33:05;;;;;;;88.63;31.88;;;;;;;13.14;98.92;100300.09;5125545;27;20032;-72
2021/11/04 07:35:35;;;;;;;84.78;28.88;;;;;;;13.09;98.74;100309.41;5123970;28;20042;-72
2021/11/04 07:38:03;;;;;;;83.10;30.75;;;;;;;13.20;98.37;100308.28;5124051;28;20024;-72
2021/11/04 07:40:30;;;;;;;86.97;31.05;;;;;;;13.30;97.22;100300.13;5124062;27;20309;-72
2021/11/04 07:42:56;;;;;;;85.55;33.28;;;;;;;13.31;97.05;100307.94;5124806;27;20106;-72
2021/11/04 07:45:24;;;;;;;91.72;33.13;;;;;;;13.49;95.70;100299.78;5124559;27;20103;-72
2021/11/04 07:47:49;;;;;;;82.65;30.98;;;;;;;13.54;95.79;100304.66;5124508;27;20724;-73
2021/11/04 07:50:20;;;;;;;82.68;31.48;;;;;;;13.62;95.52;100318.78;5117774;27;20071;-73
2021/11/04 07:52:47;;;;;;;93.70;35.05;;;;;;;13.57;96.04;100299.00;5115761;27;20035;-72
2021/11/04 07:55:13;;;;;;;82.10;32.10;;;;;;;13.76;94.10;100305.78;5118648;27;20080;-72
2021/11/04 07:57:39;;;;;;;83.20;31.55;;;;;;;13.64;94.76;100298.16;5119133;27;20317;-72
2021/11/04 08:00:10;;;;;;;91.38;31.75;;;;;;;13.66;95.28;100298.81;5118802;27;20216;-72
2021/11/04 08:02:36;;;;;;;81.47;30.35;;;;;;;13.65;95.77;100297.16;5121601;27;20142;-72
2021/11/04 08:05:02;;;;;;;83.75;31.80;;;;;;;13.77;94.86;100294.13;5112210;28;20090;-72
2021/11/04 08:07:29;;;;;;;88.47;33.55;;;;;;;13.78;95.44;100293.97;5113766;28;20020;-71
2021/11/04 08:09:56;;;;;;;81.78;32.25;;;;;;;13.79;95.70;100292.97;5113999;27;20028;-72
2021/11/04 08:12:22;;;;;;;96.15;36.67;;;;;;;13.90;94.63;100289.94;5116206;27;20198;-72
2021/11/04 08:14:47;;;;;;;104.72;37.50;;;;;;;13.89;95.41;100290.13;5118540;27;20035;-72
2021/11/04 08:17:13;;;;;;;161.23;61.72;;;;;;;14.07;95.30;100302.22;5114825;27;20039;-72
2021/11/04 08:19:38;;;;;;;157.88;57.97;;;;;;;13.90;95.68;100294.44;5117527;27;20099;-72
2021/11/04 08:22:04;;;;;;;151.15;57.80;;;;;;;13.86;96.19;100295.78;5116349;28;20093;-72
2021/11/04 08:24:29;;;;;;;155.38;58.25;;;;;;;14.02;95.85;100309.06;5115702;28;20329;-73
2021/11/04 08:26:55;;;;;;;144.35;53.10;;;;;;;13.99;95.41;100304.91;5114071;27;20063;-72
2021/11/04 08:29:20;;;;;;;127.55;46.92;;;;;;;14.04;95.50;100305.22;5116586;27;20034;-72
2021/11/04 08:31:46;;;;;;;112.65;43.17;;;;;;;14.07;95.58;100314.69;5117854;27;20042;-72
2021/11/04 08:34:11;;;;;;;86.55;36.65;;;;;;;14.12;95.80;100314.19;5116416;27;20024;-72
2021/11/04 08:36:37;;;;;;;78.47;34.33;;;;;;;14.11;95.04;100307.19;5118642;27;20044;-72
2021/11/04 08:39:03;;;;;;;76.68;31.13;;;;;;;14.33;94.53;100327.78;5117048;27;20058;-72
2021/11/04 08:41:28;;;;;;;69.30;29.90;;;;;;;14.30;94.85;100328.94;5114560;27;20032;-72
2021/11/04 08:43:54;;;;;;;63.78;30.02;;;;;;;14.19;96.01;100328.47;5117060;27;20027;-72
2021/11/04 08:46:20;;;;;;;71.70;30.15;;;;;;;14.19;95.50;100334.63;5115624;27;20040;-72
2021/11/04 08:48:45;;;;;;;70.05;30.80;;;;;;;14.27;94.52;100342.59;5116823;27;20035;-72
2021/11/04 08:51:11;;;;;;;67.25;29.27;;;;;;;14.30;94.07;100333.44;5117490;27;20400;-72
2021/11/04 08:53:37;;;;;;;69.80;30.75;;;;;;;14.31;94.15;100335.09;5114775;27;20104;-72
2021/11/04 08:56:02;;;;;;;65.70;31.30;;;;;;;14.40;94.26;100331.41;5115353;27;20066;-73
2021/11/04 08:58:28;;;;;;;72.95;33.63;;;;;;;14.38;94.20;100328.09;5117545;28;20031;-73
2021/11/04 09:00:54;;;;;;;65.65;31.95;;;;;;;14.47;94.08;100329.75;5116266;27;20061;-72
2021/11/04 09:03:20;;;;;;;66.30;30.85;;;;;;;14.47;93.20;100331.56;5117020;27;20094;-72
2021/11/04 09:05:47;;;;;;;64.07;30.20;;;;;;;14.51;93.75;100347.03;5114560;27;20055;-73
2021/11/04 09:08:13;;;;;;;68.05;30.48;;;;;;;14.34;96.03;100319.59;5114843;27;20221;-72
2021/11/04 09:10:39;;;;;;;60.83;30.10;;;;;;;14.60;95.37;100330.06;5116910;27;20035;-72
2021/11/04 09:13:05;;;;;;;61.85;29.38;;;;;;;14.64;95.11;100318.03;5115020;27;20068;-73
2021/11/04 09:15:30;;;;;;;55.40;28.80;;;;;;;14.86;94.07;100323.59;5113345;27;20098;-73
2021/11/04 09:17:56;;;;;;;50.55;25.40;;;;;;;14.76;95.04;100318.47;5130279;27;20039;-72
2021/11/04 09:20:21;;;;;;;51.85;24.77;;;;;;;14.89;93.78;100320.56;5115206;28;20032;-72
2021/11/04 09:22:50;;;;;;;43.00;22.65;;;;;;;15.01;91.89;100314.66;5117989;27;20035;-72
2021/11/04 09:25:19;;;;;;;32.10;18.30;;;;;;;15.01;90.67;100309.31;5114627;27;20044;-72
2021/11/04 09:27:46;;;;;;;38.20;20.48;;;;;;;14.92;91.52;100307.72;5114579;27;20229;-72
2021/11/04 09:30:12;;;;;;;32.58;17.38;;;;;;;14.86;90.29;100304.91;5117491;27;20089;-72
2021/11/04 09:32:39;;;;;;;44.28;22.95;;;;;;;14.71;90.16;100299.50;5111479;27;20071;-72
2021/11/04 09:35:05;;;;;;;51.78;26.70;;;;;;;14.65;91.36;100313.53;5110171;28;20035;-71
2021/11/04 09:37:30;;;;;;;32.00;18.83;;;;;;;14.58;91.54;100305.41;5115367;27;20250;-72
2021/11/04 09:39:56;;;;;;;30.98;17.02;;;;;;;14.53;91.77;100293.56;5113765;27;20055;-72
2021/11/04 09:42:23;;;;;;;35.20;18.25;;;;;;;14.44;92.37;100298.13;5117002;27;20345;-72
2021/11/04 09:44:49;;;;;;;40.75;21.13;;;;;;;14.25;93.62;100299.31;5114014;27;20438;-72
2021/11/04 09:47:23;;;;;;;32.88;19.70;;;;;;;14.17;95.57;100294.03;5111967;28;20130;-72
2021/11/04 09:49:51;;;;;;;39.30;21.23;;;;;;;14.29;95.78;100291.81;5114268;27;20071;-72
2021/11/04 09:52:21;;;;;;;41.33;21.88;;;;;;;14.45;94.54;100285.63;5114917;28;20279;-72
2021/11/04 09:54:46;;;;;;;38.58;20.88;;;;;;;14.56;92.58;100279.91;5113299;28;20207;-72
2021/11/04 09:57:15;;;;;;;39.17;20.95;;;;;;;14.44;94.30;100270.63;5114009;28;20053;-72
2021/11/04 09:59:40;;;;;;;38.17;21.08;;;;;;;14.51;94.36;100277.75;5115200;27;20042;-72
2021/11/04 10:02:15;;;;;;;37.08;20.83;;;;;;;14.68;93.41;100283.88;5115891;28;20019;-72
2021/11/04 10:04:43;;;;;;;34.80;19.85;;;;;;;14.71;93.06;100280.03;5112955;28;20031;-73
2021/11/04 10:07:09;;;;;;;43.53;21.33;;;;;;;14.78;92.43;100286.31;5115065;28;20107;-72
2021/11/04 10:09:35;;;;;;;37.20;19.63;;;;;;;14.84;90.27;100273.09;5113616;28;20034;-72
2021/11/04 10:12:11;;;;;;;38.97;21.55;;;;;;;14.68;91.72;100278.53;5111867;28;20020;-73
2021/11/04 10:14:38;;;;;;;43.40;23.38;;;;;;;14.35;93.05;100277.81;5117262;28;20036;-72
2021/11/04 10:17:04;;;;;;;39.72;22.30;;;;;;;14.12;94.47;100277.72;5113516;28;20019;-72
2021/11/04 10:19:41;;;;;;;42.08;22.58;;;;;;;14.22;94.31;100280.19;5113908;28;20028;-72
2021/11/04 10:22:07;;;;;;;46.28;23.73;;;;;;;14.20;93.20;100287.53;5113789;28;20104;-72
2021/11/04 10:24:32;;;;;;;44.22;23.80;;;;;;;14.24;92.66;100275.53;5111959;28;20245;-72
2021/11/04 10:26:57;;;;;;;42.75;22.10;;;;;;;14.31;92.77;100281.81;5113945;28;20106;-72
2021/11/04 10:29:35;;;;;;;42.00;22.65;;;;;;;14.63;91.51;100280.91;5115838;28;20035;-72
2021/11/04 10:32:00;;;;;;;44.95;22.55;;;;;;;14.47;92.87;100287.09;5114537;28;20142;-72
2021/11/04 10:34:36;;;;;;;47.20;25.17;;;;;;;14.43;94.61;100277.81;5113199;28;20696;-72
2021/11/04 10:37:09;;;;;;;45.25;24.60;;;;;;;14.38;93.51;100282.78;5113672;28;20046;-72
2021/11/04 10:39:39;;;;;;;47.88;25.40;;;;;;;14.51;92.51;100272.44;5111563;28;20032;-72
2021/11/04 10:42:04;;;;;;;45.30;24.33;;;;;;;14.41;93.16;100277.13;5116900;27;20039;-72
2021/11/04 10:44:30;;;;;;;41.13;23.48;;;;;;;14.56;93.21;100275.41;5121209;27;20094;-72
2021/11/04 10:46:57;;;;;;;42.83;24.33;;;;;;;14.63;93.57;100276.41;5118476;27;20047;-72
2021/11/04 10:49:27;;;;;;;43.58;26.23;;;;;;;14.78;92.37;100267.66;5116448;27;20036;-72
2021/11/04 10:52:03;;;;;;;55.50;29.80;;;;;;;14.93;91.88;100269.38;5134848;27;20043;-72
2021/11/04 10:54:38;;;;;;;58.35;31.83;;;;;;;14.81;92.25;100262.78;5121040;27;20051;-72
2021/11/04 10:57:04;;;;;;;40.25;24.50;;;;;;;15.05;88.72;100271.63;5119679;27;20042;-72
2021/11/04 10:59:47;;;;;;;46.85;24.13;;;;;;;14.96;89.20;100265.53;5120419;27;20035;-71
2021/11/04 11:02:13;;;;;;;45.42;25.23;;;;;;;15.02;89.09;100259.47;5116880;27;20023;-72
2021/11/04 11:04:39;;;;;;;40.65;24.23;;;;;;;15.07;88.39;100254.44;5119222;27;20043;-71